sensor_id;sensor_type;location;lat;lon;timestamp;P1;durP1;ratioP1;P2;durP2;ratioP2
35699;SDS011;21818;51.078;12.108;2022-11-04T00:01:31;8.55;;;3.72;;
35699;SDS011;21818;51.078;12.108;2022-11-04T00:03:57;6.57;;;3.00;;
35699;SDS011;21818;51.078;12.108;2022-11-04T00:06:23;5.80;;;3.08;;
35699;SDS011;21818;51.078;12.108;2022-11-04T00:08:49;6.13;;;3.35;;
35699;SDS011;21818;51.078;12.108;2022-11-04T00:11:16;7.20;;;2.90;;
35699;SDS011;21818;51.078;12.108;2022-11-04T00:14:01;4.55;;;2.63;;
35699;SDS011;21818;51.078;12.108;2022-11-04T00:16:27;6.57;;;3.13;;
35699;SDS011;21818;51.078;12.108;2022-11-04T00:19:11;4.75;;;2.83;;
35699;SDS011;21818;51.078;12.108;2022-11-04T00:21:37;5.38;;;2.85;;
35699;SDS011;21818;51.078;12.108;2022-11-04T00:24:21;5.88;;;2.95;;
35699;SDS011;21818;51.078;12.108;2022-11-04T00:27:06;6.90;;;3.42;;
35699;SDS011;21818;51.078;12.108;2022-11-04T00:29:54;5.90;;;2.85;;
35699;SDS011;21818;51.078;12.108;2022-11-04T00:32:20;5.07;;;2.65;;
35699;SDS011;21818;51.078;12.108;2022-11-04T00:35:04;6.28;;;2.90;;
35699;SDS011;21818;51.078;12.108;2022-11-04T00:37:30;8.38;;;2.83;;
35699;SDS011;21818;51.078;12.108;2022-11-04T00:39:56;7.75;;;2.80;;
35699;SDS011;21818;51.078;12.108;2022-11-04T00:42:22;9.05;;;3.38;;
35699;SDS011;21818;51.078;12.108;2022-11-04T00:44:47;8.02;;;3.03;;
35699;SDS011;21818;51.078;12.108;2022-11-04T00:47:13;6.40;;;2.63;;
35699;SDS011;21818;51.078;12.108;2022-11-04T00:49:38;4.55;;;2.65;;
35699;SDS011;21818;51.078;12.108;2022-11-04T00:52:04;5.88;;;2.92;;
35699;SDS011;21818;51.078;12.108;2022-11-04T00:54:30;5.78;;;2.90;;
35699;SDS011;21818;51.078;12.108;2022-11-04T00:56:55;4.78;;;2.70;;
35699;SDS011;21818;51.078;12.108;2022-11-04T00:59:21;5.22;;;2.85;;
35699;SDS011;21818;51.078;12.108;2022-11-04T01:01:46;6.70;;;3.00;;
35699;SDS011;21818;51.078;12.108;2022-11-04T01:04:12;4.70;;;2.38;;
35699;SDS011;21818;51.078;12.108;2022-11-04T01:06:37;6.15;;;2.67;;
35699;SDS011;21818;51.078;12.108;2022-11-04T01:09:04;5.75;;;2.90;;
35699;SDS011;21818;51.078;12.108;2022-11-04T01:11:34;3.88;;;2.42;;
35699;SDS011;21818;51.078;12.108;2022-11-04T01:14:00;8.50;;;2.97;;
35699;SDS011;21818;51.078;12.108;2022-11-04T01:16:25;4.28;;;2.40;;
35699;SDS011;21818;51.078;12.108;2022-11-04T01:18:52;7.25;;;2.45;;
35699;SDS011;21818;51.078;12.108;2022-11-04T01:21:17;8.07;;;2.80;;
35699;SDS011;21818;51.078;12.108;2022-11-04T01:23:44;5.18;;;2.65;;
35699;SDS011;21818;51.078;12.108;2022-11-04T01:26:17;5.47;;;3.00;;
35699;SDS011;21818;51.078;12.108;2022-11-04T01:28:44;5.63;;;2.63;;
35699;SDS011;21818;51.078;12.108;2022-11-04T01:31:14;5.50;;;2.63;;
35699;SDS011;21818;51.078;12.108;2022-11-04T01:33:41;6.53;;;2.63;;
35699;SDS011;21818;51.078;12.108;2022-11-04T01:36:08;4.40;;;2.60;;
35699;SDS011;21818;51.078;12.108;2022-11-04T01:38:35;5.07;;;2.47;;
35699;SDS011;21818;51.078;12.108;2022-11-04T01:41:01;7.68;;;3.33;;
35699;SDS011;21818;51.078;12.108;2022-11-04T01:47:02;4.70;;;2.40;;
35699;SDS011;21818;51.078;12.108;2022-11-04T01:49:24;26.85;;;4.90;;
35699;SDS011;21818;51.078;12.108;2022-11-04T01:52:04;6.78;;;3.17;;
35699;SDS011;21818;51.078;12.108;2022-11-04T01:54:32;3.50;;;2.10;;
35699;SDS011;21818;51.078;12.108;2022-11-04T01:56:59;7.32;;;3.33;;
35699;SDS011;21818;51.078;12.108;2022-11-04T01:59:27;4.60;;;2.58;;
35699;SDS011;21818;51.078;12.108;2022-11-04T02:01:58;3.63;;;2.40;;
35699;SDS011;21818;51.078;12.108;2022-11-04T02:04:23;4.93;;;2.25;;
35699;SDS011;21818;51.078;12.108;2022-11-04T02:06:49;5.78;;;2.63;;
35699;SDS011;21818;51.078;12.108;2022-11-04T02:09:18;5.50;;;3.28;;
35699;SDS011;21818;51.078;12.108;2022-11-04T02:11:45;5.43;;;2.78;;
35699;SDS011;21818;51.078;12.108;2022-11-04T02:14:29;5.15;;;2.80;;
35699;SDS011;21818;51.078;12.108;2022-11-04T02:17:01;6.07;;;2.33;;
35699;SDS011;21818;51.078;12.108;2022-11-04T02:30:30;8.55;;;3.10;;
35699;SDS011;21818;51.078;12.108;2022-11-04T02:46:46;4.80;;;2.88;;
35699;SDS011;21818;51.078;12.108;2022-11-04T02:52:03;6.05;;;3.63;;
35699;SDS011;21818;51.078;12.108;2022-11-04T02:54:49;3.92;;;2.58;;
35699;SDS011;21818;51.078;12.108;2022-11-04T02:57:29;5.95;;;2.80;;
35699;SDS011;21818;51.078;12.108;2022-11-04T03:00:06;6.22;;;2.95;;
35699;SDS011;21818;51.078;12.108;2022-11-04T03:02:36;5.88;;;2.97;;
35699;SDS011;21818;51.078;12.108;2022-11-04T03:05:14;8.23;;;3.72;;
35699;SDS011;21818;51.078;12.108;2022-11-04T03:07:44;6.32;;;3.47;;
35699;SDS011;21818;51.078;12.108;2022-11-04T03:10:14;7.65;;;2.92;;
35699;SDS011;21818;51.078;12.108;2022-11-04T03:16:00;5.50;;;3.00;;
35699;SDS011;21818;51.078;12.108;2022-11-04T03:18:35;6.68;;;3.95;;
35699;SDS011;21818;51.078;12.108;2022-11-04T03:21:10;7.00;;;3.13;;
35699;SDS011;21818;51.078;12.108;2022-11-04T03:23:36;7.35;;;3.00;;
35699;SDS011;21818;51.078;12.108;2022-11-04T03:26:08;7.13;;;3.42;;
35699;SDS011;21818;51.078;12.108;2022-11-04T03:28:45;6.28;;;3.17;;
35699;SDS011;21818;51.078;12.108;2022-11-04T03:31:38;6.35;;;3.75;;
35699;SDS011;21818;51.078;12.108;2022-11-04T03:34:25;6.70;;;2.95;;
35699;SDS011;21818;51.078;12.108;2022-11-04T03:36:50;6.18;;;3.00;;
35699;SDS011;21818;51.078;12.108;2022-11-04T03:39:16;5.53;;;2.72;;
35699;SDS011;21818;51.078;12.108;2022-11-04T03:41:49;5.70;;;3.40;;
35699;SDS011;21818;51.078;12.108;2022-11-04T03:44:19;6.18;;;2.92;;
35699;SDS011;21818;51.078;12.108;2022-11-04T03:46:45;6.35;;;3.05;;
35699;SDS011;21818;51.078;12.108;2022-11-04T03:49:11;6.22;;;2.78;;
35699;SDS011;21818;51.078;12.108;2022-11-04T03:51:39;7.15;;;3.65;;
35699;SDS011;21818;51.078;12.108;2022-11-04T03:54:04;7.03;;;2.92;;
35699;SDS011;21818;51.078;12.108;2022-11-04T04:02:12;7.10;;;3.15;;
35699;SDS011;21818;51.078;12.108;2022-11-04T04:07:28;4.72;;;2.50;;
35699;SDS011;21818;51.078;12.108;2022-11-04T04:10:00;7.50;;;3.67;;
35699;SDS011;21818;51.078;12.108;2022-11-04T04:12:55;5.32;;;2.97;;
35699;SDS011;21818;51.078;12.108;2022-11-04T04:15:26;9.30;;;3.07;;
35699;SDS011;21818;51.078;12.108;2022-11-04T04:18:00;4.65;;;2.67;;
35699;SDS011;21818;51.078;12.108;2022-11-04T04:23:04;4.45;;;2.63;;
35699;SDS011;21818;51.078;12.108;2022-11-04T04:25:53;8.32;;;3.00;;
35699;SDS011;21818;51.078;12.108;2022-11-04T04:28:40;5.18;;;2.30;;
35699;SDS011;21818;51.078;12.108;2022-11-04T04:31:08;4.57;;;2.75;;
35699;SDS011;21818;51.078;12.108;2022-11-04T04:33:37;5.72;;;2.85;;
35699;SDS011;21818;51.078;12.108;2022-11-04T04:36:03;5.88;;;2.67;;
35699;SDS011;21818;51.078;12.108;2022-11-04T04:38:31;5.13;;;2.28;;
35699;SDS011;21818;51.078;12.108;2022-11-04T04:44:17;3.67;;;2.63;;
35699;SDS011;21818;51.078;12.108;2022-11-04T04:47:03;4.75;;;2.22;;
35699;SDS011;21818;51.078;12.108;2022-11-04T04:49:30;7.38;;;3.63;;
35699;SDS011;21818;51.078;12.108;2022-11-04T04:51:59;7.32;;;2.72;;
35699;SDS011;21818;51.078;12.108;2022-11-04T04:54:26;3.95;;;2.38;;
35699;SDS011;21818;51.078;12.108;2022-11-04T04:56:52;4.88;;;2.30;;
35699;SDS011;21818;51.078;12.108;2022-11-04T04:59:17;4.03;;;2.42;;
35699;SDS011;21818;51.078;12.108;2022-11-04T05:01:43;4.60;;;2.30;;
35699;SDS011;21818;51.078;12.108;2022-11-04T05:04:09;4.80;;;2.63;;
35699;SDS011;21818;51.078;12.108;2022-11-04T05:06:34;4.30;;;2.40;;
35699;SDS011;21818;51.078;12.108;2022-11-04T05:09:00;4.60;;;2.42;;
35699;SDS011;21818;51.078;12.108;2022-11-04T05:11:26;5.03;;;2.30;;
35699;SDS011;21818;51.078;12.108;2022-11-04T05:13:51;5.20;;;2.50;;
35699;SDS011;21818;51.078;12.108;2022-11-04T05:16:17;3.20;;;2.05;;
35699;SDS011;21818;51.078;12.108;2022-11-04T05:18:43;6.28;;;2.35;;
35699;SDS011;21818;51.078;12.108;2022-11-04T05:21:09;3.55;;;1.92;;
35699;SDS011;21818;51.078;12.108;2022-11-04T05:23:37;4.82;;;2.35;;
35699;SDS011;21818;51.078;12.108;2022-11-04T05:26:02;2.63;;;1.88;;
35699;SDS011;21818;51.078;12.108;2022-11-04T05:28:28;5.25;;;2.42;;
35699;SDS011;21818;51.078;12.108;2022-11-04T05:30:54;5.20;;;2.55;;
35699;SDS011;21818;51.078;12.108;2022-11-04T05:33:20;3.83;;;2.42;;
35699;SDS011;21818;51.078;12.108;2022-11-04T05:35:45;4.95;;;2.60;;
35699;SDS011;21818;51.078;12.108;2022-11-04T05:38:11;6.55;;;2.70;;
35699;SDS011;21818;51.078;12.108;2022-11-04T05:40:37;4.50;;;2.42;;
35699;SDS011;21818;51.078;12.108;2022-11-04T05:43:02;6.20;;;2.20;;
35699;SDS011;21818;51.078;12.108;2022-11-04T05:45:28;3.65;;;2.13;;
35699;SDS011;21818;51.078;12.108;2022-11-04T05:47:57;3.88;;;2.35;;
35699;SDS011;21818;51.078;12.108;2022-11-04T05:50:24;3.70;;;1.80;;
35699;SDS011;21818;51.078;12.108;2022-11-04T05:52:49;2.75;;;2.10;;
35699;SDS011;21818;51.078;12.108;2022-11-04T05:55:15;3.03;;;1.85;;
35699;SDS011;21818;51.078;12.108;2022-11-04T05:57:40;4.00;;;2.30;;
35699;SDS011;21818;51.078;12.108;2022-11-04T06:00:06;4.72;;;2.47;;
35699;SDS011;21818;51.078;12.108;2022-11-04T06:02:32;5.13;;;2.88;;
35699;SDS011;21818;51.078;12.108;2022-11-04T06:04:58;6.82;;;4.13;;
35699;SDS011;21818;51.078;12.108;2022-11-04T06:07:24;5.90;;;3.38;;
35699;SDS011;21818;51.078;12.108;2022-11-04T06:09:49;5.88;;;2.90;;
35699;SDS011;21818;51.078;12.108;2022-11-04T06:12:15;4.05;;;2.45;;
35699;SDS011;21818;51.078;12.108;2022-11-04T06:14:41;5.97;;;2.63;;
35699;SDS011;21818;51.078;12.108;2022-11-04T06:17:09;3.13;;;2.40;;
35699;SDS011;21818;51.078;12.108;2022-11-04T06:19:40;3.85;;;2.50;;
35699;SDS011;21818;51.078;12.108;2022-11-04T06:22:07;2.72;;;1.70;;
35699;SDS011;21818;51.078;12.108;2022-11-04T06:24:36;8.93;;;2.30;;
35699;SDS011;21818;51.078;12.108;2022-11-04T06:27:02;3.22;;;2.40;;
35699;SDS011;21818;51.078;12.108;2022-11-04T06:29:28;3.50;;;1.90;;
35699;SDS011;21818;51.078;12.108;2022-11-04T06:31:54;3.55;;;2.03;;
35699;SDS011;21818;51.078;12.108;2022-11-04T06:34:19;2.65;;;2.08;;
35699;SDS011;21818;51.078;12.108;2022-11-04T06:36:45;3.25;;;2.10;;
35699;SDS011;21818;51.078;12.108;2022-11-04T06:39:12;4.07;;;2.47;;
35699;SDS011;21818;51.078;12.108;2022-11-04T06:41:37;2.85;;;2.00;;
35699;SDS011;21818;51.078;12.108;2022-11-04T06:44:03;8.77;;;2.58;;
35699;SDS011;21818;51.078;12.108;2022-11-04T06:48:54;3.20;;;2.13;;
35699;SDS011;21818;51.078;12.108;2022-11-04T06:51:21;3.17;;;2.15;;
35699;SDS011;21818;51.078;12.108;2022-11-04T06:53:47;4.10;;;2.25;;
35699;SDS011;21818;51.078;12.108;2022-11-04T06:56:13;4.85;;;1.65;;
35699;SDS011;21818;51.078;12.108;2022-11-04T06:58:39;2.47;;;1.65;;
35699;SDS011;21818;51.078;12.108;2022-11-04T07:01:04;2.47;;;1.83;;
35699;SDS011;21818;51.078;12.108;2022-11-04T07:03:30;3.28;;;1.85;;
35699;SDS011;21818;51.078;12.108;2022-11-04T07:05:56;12.00;;;3.03;;
35699;SDS011;21818;51.078;12.108;2022-11-04T07:08:21;12.15;;;2.80;;
35699;SDS011;21818;51.078;12.108;2022-11-04T07:10:47;6.95;;;2.08;;
35699;SDS011;21818;51.078;12.108;2022-11-04T07:13:12;11.65;;;2.95;;
35699;SDS011;21818;51.078;12.108;2022-11-04T07:15:40;9.57;;;2.42;;
35699;SDS011;21818;51.078;12.108;2022-11-04T07:18:06;4.88;;;2.10;;
35699;SDS011;21818;51.078;12.108;2022-11-04T07:20:32;10.25;;;2.80;;
35699;SDS011;21818;51.078;12.108;2022-11-04T07:22:58;7.82;;;2.00;;
35699;SDS011;21818;51.078;12.108;2022-11-04T07:25:24;4.10;;;1.73;;
35699;SDS011;21818;51.078;12.108;2022-11-04T07:27:50;7.10;;;2.17;;
35699;SDS011;21818;51.078;12.108;2022-11-04T07:30:15;2.65;;;1.60;;
35699;SDS011;21818;51.078;12.108;2022-11-04T07:32:41;3.97;;;1.92;;
35699;SDS011;21818;51.078;12.108;2022-11-04T07:35:07;4.45;;;1.88;;
35699;SDS011;21818;51.078;12.108;2022-11-04T07:37:33;5.10;;;2.30;;
35699;SDS011;21818;51.078;12.108;2022-11-04T07:39:58;3.67;;;1.50;;
35699;SDS011;21818;51.078;12.108;2022-11-04T07:42:24;2.75;;;1.55;;
35699;SDS011;21818;51.078;12.108;2022-11-04T07:44:50;4.72;;;1.73;;
35699;SDS011;21818;51.078;12.108;2022-11-04T07:47:15;2.80;;;1.73;;
35699;SDS011;21818;51.078;12.108;2022-11-04T07:49:41;3.10;;;1.17;;
35699;SDS011;21818;51.078;12.108;2022-11-04T07:52:06;5.18;;;1.55;;
35699;SDS011;21818;51.078;12.108;2022-11-04T07:54:32;2.45;;;1.25;;
35699;SDS011;21818;51.078;12.108;2022-11-04T07:56:58;3.20;;;1.30;;
35699;SDS011;21818;51.078;12.108;2022-11-04T07:59:24;3.80;;;1.20;;
35699;SDS011;21818;51.078;12.108;2022-11-04T08:01:49;2.65;;;1.27;;
35699;SDS011;21818;51.078;12.108;2022-11-04T08:04:15;2.40;;;1.50;;
35699;SDS011;21818;51.078;12.108;2022-11-04T08:06:40;4.20;;;1.80;;
35699;SDS011;21818;51.078;12.108;2022-11-04T08:09:06;3.65;;;1.33;;
35699;SDS011;21818;51.078;12.108;2022-11-04T08:11:32;2.03;;;1.23;;
35699;SDS011;21818;51.078;12.108;2022-11-04T08:13:58;5.50;;;1.52;;
35699;SDS011;21818;51.078;12.108;2022-11-04T08:16:27;2.92;;;1.30;;
35699;SDS011;21818;51.078;12.108;2022-11-04T08:18:53;3.42;;;1.77;;
35699;SDS011;21818;51.078;12.108;2022-11-04T08:21:19;1.23;;;0.90;;
35699;SDS011;21818;51.078;12.108;2022-11-04T08:23:45;3.63;;;1.58;;
35699;SDS011;21818;51.078;12.108;2022-11-04T08:26:13;3.67;;;1.10;;
35699;SDS011;21818;51.078;12.108;2022-11-04T08:28:41;3.13;;;0.93;;
35699;SDS011;21818;51.078;12.108;2022-11-04T08:31:08;1.77;;;1.00;;
35699;SDS011;21818;51.078;12.108;2022-11-04T08:33:36;2.15;;;0.70;;
35699;SDS011;21818;51.078;12.108;2022-11-04T08:36:06;1.25;;;0.60;;
35699;SDS011;21818;51.078;12.108;2022-11-04T08:38:35;1.50;;;0.60;;
35699;SDS011;21818;51.078;12.108;2022-11-04T08:41:01;1.58;;;0.90;;
35699;SDS011;21818;51.078;12.108;2022-11-04T08:43:28;2.63;;;0.88;;
35699;SDS011;21818;51.078;12.108;2022-11-04T08:45:54;1.40;;;0.82;;
35699;SDS011;21818;51.078;12.108;2022-11-04T08:48:20;1.08;;;0.70;;
35699;SDS011;21818;51.078;12.108;2022-11-04T08:50:49;1.58;;;0.80;;
35699;SDS011;21818;51.078;12.108;2022-11-04T08:53:16;1.40;;;0.77;;
35699;SDS011;21818;51.078;12.108;2022-11-04T08:55:42;2.17;;;0.80;;
35699;SDS011;21818;51.078;12.108;2022-11-04T08:58:08;2.95;;;0.90;;
35699;SDS011;21818;51.078;12.108;2022-11-04T09:00:34;1.08;;;0.73;;
35699;SDS011;21818;51.078;12.108;2022-11-04T09:03:00;1.55;;;0.70;;
35699;SDS011;21818;51.078;12.108;2022-11-04T09:05:26;1.63;;;0.95;;
35699;SDS011;21818;51.078;12.108;2022-11-04T09:07:51;1.67;;;0.70;;
35699;SDS011;21818;51.078;12.108;2022-11-04T09:10:17;2.05;;;0.60;;
35699;SDS011;21818;51.078;12.108;2022-11-04T09:12:43;2.25;;;0.73;;
35699;SDS011;21818;51.078;12.108;2022-11-04T09:15:09;1.95;;;0.77;;
35699;SDS011;21818;51.078;12.108;2022-11-04T09:17:35;1.90;;;0.80;;
35699;SDS011;21818;51.078;12.108;2022-11-04T09:20:01;3.03;;;0.65;;
35699;SDS011;21818;51.078;12.108;2022-11-04T09:22:26;1.42;;;0.60;;
35699;SDS011;21818;51.078;12.108;2022-11-04T09:24:52;2.78;;;0.70;;
35699;SDS011;21818;51.078;12.108;2022-11-04T09:27:18;1.45;;;0.85;;
35699;SDS011;21818;51.078;12.108;2022-11-04T09:29:43;1.30;;;0.68;;
35699;SDS011;21818;51.078;12.108;2022-11-04T09:32:10;0.80;;;0.60;;
35699;SDS011;21818;51.078;12.108;2022-11-04T09:34:35;1.20;;;0.65;;
35699;SDS011;21818;51.078;12.108;2022-11-04T09:37:01;0.50;;;0.40;;
35699;SDS011;21818;51.078;12.108;2022-11-04T09:39:26;1.67;;;0.70;;
35699;SDS011;21818;51.078;12.108;2022-11-04T09:47:15;1.98;;;0.50;;
35699;SDS011;21818;51.078;12.108;2022-11-04T09:49:42;0.60;;;0.50;;
35699;SDS011;21818;51.078;12.108;2022-11-04T09:52:26;1.35;;;0.60;;
35699;SDS011;21818;51.078;12.108;2022-11-04T09:57:56;1.52;;;0.63;;
35699;SDS011;21818;51.078;12.108;2022-11-04T10:00:22;1.25;;;0.45;;
35699;SDS011;21818;51.078;12.108;2022-11-04T10:13:52;0.90;;;0.30;;
35699;SDS011;21818;51.078;12.108;2022-11-04T10:19:00;1.25;;;0.32;;
35699;SDS011;21818;51.078;12.108;2022-11-04T10:24:19;1.35;;;0.50;;
35699;SDS011;21818;51.078;12.108;2022-11-04T10:27:04;1.30;;;0.50;;
35699;SDS011;21818;51.078;12.108;2022-11-04T10:29:42;3.75;;;0.65;;
35699;SDS011;21818;51.078;12.108;2022-11-04T10:32:21;2.83;;;0.50;;
35699;SDS011;21818;51.078;12.108;2022-11-04T10:34:57;0.95;;;0.50;;
35699;SDS011;21818;51.078;12.108;2022-11-04T10:37:26;0.82;;;0.47;;
35699;SDS011;21818;51.078;12.108;2022-11-04T10:39:56;1.15;;;0.30;;
35699;SDS011;21818;51.078;12.108;2022-11-04T10:42:36;1.50;;;0.30;;
35699;SDS011;21818;51.078;12.108;2022-11-04T10:45:02;0.95;;;0.40;;
35699;SDS011;21818;51.078;12.108;2022-11-04T10:52:37;2.22;;;0.82;;
35699;SDS011;21818;51.078;12.108;2022-11-04T10:55:37;0.60;;;0.38;;
35699;SDS011;21818;51.078;12.108;2022-11-04T10:58:40;2.13;;;0.25;;
35699;SDS011;21818;51.078;12.108;2022-11-04T11:01:28;2.00;;;0.50;;
35699;SDS011;21818;51.078;12.108;2022-11-04T11:03:56;0.40;;;0.30;;
35699;SDS011;21818;51.078;12.108;2022-11-04T11:06:27;1.67;;;0.40;;
35699;SDS011;21818;51.078;12.108;2022-11-04T11:08:54;0.75;;;0.30;;
35699;SDS011;21818;51.078;12.108;2022-11-04T11:11:39;2.85;;;0.55;;
35699;SDS011;21818;51.078;12.108;2022-11-04T11:16:54;0.55;;;0.20;;
35699;SDS011;21818;51.078;12.108;2022-11-04T11:19:21;0.75;;;0.30;;
35699;SDS011;21818;51.078;12.108;2022-11-04T11:21:49;3.20;;;0.50;;
35699;SDS011;21818;51.078;12.108;2022-11-04T11:24:19;1.05;;;0.40;;
35699;SDS011;21818;51.078;12.108;2022-11-04T11:26:48;0.85;;;0.38;;
35699;SDS011;21818;51.078;12.108;2022-11-04T11:29:20;2.80;;;0.50;;
35699;SDS011;21818;51.078;12.108;2022-11-04T11:31:51;1.02;;;0.47;;
35699;SDS011;21818;51.078;12.108;2022-11-04T11:34:29;0.88;;;0.35;;
35699;SDS011;21818;51.078;12.108;2022-11-04T11:36:59;2.05;;;0.70;;
35699;SDS011;21818;51.078;12.108;2022-11-04T11:39:30;0.65;;;0.32;;
35699;SDS011;21818;51.078;12.108;2022-11-04T11:42:10;0.30;;;0.20;;
35699;SDS011;21818;51.078;12.108;2022-11-04T11:44:53;1.10;;;0.30;;
35699;SDS011;21818;51.078;12.108;2022-11-04T11:52:38;0.65;;;0.20;;
35699;SDS011;21818;51.078;12.108;2022-11-04T11:55:09;2.28;;;0.40;;
35699;SDS011;21818;51.078;12.108;2022-11-04T12:00:20;0.50;;;0.30;;
35699;SDS011;21818;51.078;12.108;2022-11-04T12:05:24;5.22;;;0.52;;
35699;SDS011;21818;51.078;12.108;2022-11-04T12:08:40;1.48;;;0.47;;
35699;SDS011;21818;51.078;12.108;2022-11-04T12:10:59;0.50;;;0.22;;
35699;SDS011;21818;51.078;12.108;2022-11-04T12:13:28;2.22;;;0.30;;
35699;SDS011;21818;51.078;12.108;2022-11-04T12:21:18;0.90;;;0.30;;
35699;SDS011;21818;51.078;12.108;2022-11-04T12:27:17;0.80;;;0.35;;
35699;SDS011;21818;51.078;12.108;2022-11-04T12:30:00;0.82;;;0.20;;
35699;SDS011;21818;51.078;12.108;2022-11-04T12:35:39;0.88;;;0.43;;
35699;SDS011;21818;51.078;12.108;2022-11-04T12:44:01;1.80;;;0.20;;
35699;SDS011;21818;51.078;12.108;2022-11-04T12:49:29;0.90;;;0.40;;
35699;SDS011;21818;51.078;12.108;2022-11-04T12:52:20;0.80;;;0.50;;
35699;SDS011;21818;51.078;12.108;2022-11-04T12:57:56;0.40;;;0.20;;
35699;SDS011;21818;51.078;12.108;2022-11-04T13:00:30;2.40;;;0.28;;
35699;SDS011;21818;51.078;12.108;2022-11-04T13:03:00;1.40;;;0.50;;
35699;SDS011;21818;51.078;12.108;2022-11-04T13:05:37;0.73;;;0.35;;
35699;SDS011;21818;51.078;12.108;2022-11-04T13:08:27;1.75;;;0.30;;
35699;SDS011;21818;51.078;12.108;2022-11-04T13:11:10;0.95;;;0.30;;
35699;SDS011;21818;51.078;12.108;2022-11-04T13:14:05;0.30;;;0.30;;
35699;SDS011;21818;51.078;12.108;2022-11-04T13:16:39;0.55;;;0.30;;
35699;SDS011;21818;51.078;12.108;2022-11-04T13:19:25;1.10;;;0.40;;
35699;SDS011;21818;51.078;12.108;2022-11-04T13:22:14;0.73;;;0.30;;
35699;SDS011;21818;51.078;12.108;2022-11-04T13:24:47;0.60;;;0.28;;
35699;SDS011;21818;51.078;12.108;2022-11-04T13:27:20;0.50;;;0.40;;
35699;SDS011;21818;51.078;12.108;2022-11-04T13:29:49;2.28;;;0.55;;
35699;SDS011;21818;51.078;12.108;2022-11-04T13:32:32;0.70;;;0.40;;
35699;SDS011;21818;51.078;12.108;2022-11-04T13:37:45;0.77;;;0.40;;
35699;SDS011;21818;51.078;12.108;2022-11-04T13:40:40;0.52;;;0.40;;
35699;SDS011;21818;51.078;12.108;2022-11-04T13:43:24;0.73;;;0.25;;
35699;SDS011;21818;51.078;12.108;2022-11-04T13:46:25;0.43;;;0.22;;
35699;SDS011;21818;51.078;12.108;2022-11-04T13:56:50;1.38;;;0.40;;
35699;SDS011;21818;51.078;12.108;2022-11-04T13:59:38;1.27;;;0.22;;
35699;SDS011;21818;51.078;12.108;2022-11-04T14:04:40;0.68;;;0.17;;
35699;SDS011;21818;51.078;12.108;2022-11-04T14:07:10;1.52;;;0.43;;
35699;SDS011;21818;51.078;12.108;2022-11-04T14:14:39;2.72;;;0.40;;
35699;SDS011;21818;51.078;12.108;2022-11-04T14:20:00;1.13;;;0.30;;
35699;SDS011;21818;51.078;12.108;2022-11-04T14:25:40;0.98;;;0.47;;
35699;SDS011;21818;51.078;12.108;2022-11-04T14:31:10;0.43;;;0.25;;
35699;SDS011;21818;51.078;12.108;2022-11-04T14:38:50;0.70;;;0.28;;
35699;SDS011;21818;51.078;12.108;2022-11-04T14:41:22;3.30;;;0.85;;
35699;SDS011;21818;51.078;12.108;2022-11-04T14:44:06;0.80;;;0.30;;
35699;SDS011;21818;51.078;12.108;2022-11-04T14:46:40;0.65;;;0.25;;
35699;SDS011;21818;51.078;12.108;2022-11-04T14:54:56;0.63;;;0.20;;
35699;SDS011;21818;51.078;12.108;2022-11-04T14:57:46;0.70;;;0.20;;
35699;SDS011;21818;51.078;12.108;2022-11-04T15:05:34;0.32;;;0.28;;
35699;SDS011;21818;51.078;12.108;2022-11-04T15:11:14;1.58;;;0.32;;
35699;SDS011;21818;51.078;12.108;2022-11-04T15:13:47;1.17;;;0.40;;
35699;SDS011;21818;51.078;12.108;2022-11-04T15:16:18;0.28;;;0.28;;
35699;SDS011;21818;51.078;12.108;2022-11-04T15:18:50;0.50;;;0.20;;
35699;SDS011;21818;51.078;12.108;2022-11-04T15:21:17;1.10;;;0.30;;
35699;SDS011;21818;51.078;12.108;2022-11-04T15:23:52;0.22;;;0.17;;
35699;SDS011;21818;51.078;12.108;2022-11-04T15:26:24;0.30;;;0.20;;
35699;SDS011;21818;51.078;12.108;2022-11-04T15:28:54;0.40;;;0.30;;
35699;SDS011;21818;51.078;12.108;2022-11-04T15:31:22;2.33;;;0.32;;
35699;SDS011;21818;51.078;12.108;2022-11-04T15:33:53;0.30;;;0.20;;
35699;SDS011;21818;51.078;12.108;2022-11-04T15:36:57;0.30;;;0.30;;
35699;SDS011;21818;51.078;12.108;2022-11-04T15:39:20;0.93;;;0.30;;
35699;SDS011;21818;51.078;12.108;2022-11-04T15:41:48;0.40;;;0.20;;
35699;SDS011;21818;51.078;12.108;2022-11-04T15:44:35;0.93;;;0.45;;
35699;SDS011;21818;51.078;12.108;2022-11-04T15:47:17;0.75;;;0.45;;
35699;SDS011;21818;51.078;12.108;2022-11-04T15:49:52;0.70;;;0.25;;
35699;SDS011;21818;51.078;12.108;2022-11-04T15:52:26;0.52;;;0.20;;
35699;SDS011;21818;51.078;12.108;2022-11-04T15:54:53;1.15;;;0.40;;
35699;SDS011;21818;51.078;12.108;2022-11-04T16:00:22;0.77;;;0.20;;
35699;SDS011;21818;51.078;12.108;2022-11-04T16:02:51;0.40;;;0.22;;
35699;SDS011;21818;51.078;12.108;2022-11-04T16:07:51;0.40;;;0.30;;
35699;SDS011;21818;51.078;12.108;2022-11-04T16:10:28;0.52;;;0.35;;
35699;SDS011;21818;51.078;12.108;2022-11-04T16:13:17;0.52;;;0.35;;
35699;SDS011;21818;51.078;12.108;2022-11-04T16:16:20;1.38;;;0.40;;
35699;SDS011;21818;51.078;12.108;2022-11-04T16:18:47;0.85;;;0.30;;
35699;SDS011;21818;51.078;12.108;2022-11-04T16:21:21;0.57;;;0.30;;
35699;SDS011;21818;51.078;12.108;2022-11-04T16:23:56;0.47;;;0.22;;
35699;SDS011;21818;51.078;12.108;2022-11-04T16:26:24;1.00;;;0.20;;
35699;SDS011;21818;51.078;12.108;2022-11-04T16:28:54;0.63;;;0.22;;
35699;SDS011;21818;51.078;12.108;2022-11-04T16:31:26;0.57;;;0.25;;
35699;SDS011;21818;51.078;12.108;2022-11-04T16:33:57;0.30;;;0.20;;
35699;SDS011;21818;51.078;12.108;2022-11-04T16:36:23;0.20;;;0.10;;
35699;SDS011;21818;51.078;12.108;2022-11-04T16:38:55;0.25;;;0.20;;
35699;SDS011;21818;51.078;12.108;2022-11-04T16:41:23;0.65;;;0.32;;
35699;SDS011;21818;51.078;12.108;2022-11-04T16:43:50;0.40;;;0.20;;
35699;SDS011;21818;51.078;12.108;2022-11-04T16:46:17;1.00;;;0.30;;
35699;SDS011;21818;51.078;12.108;2022-11-04T16:48:43;0.57;;;0.20;;
35699;SDS011;21818;51.078;12.108;2022-11-04T16:51:16;0.30;;;0.20;;
35699;SDS011;21818;51.078;12.108;2022-11-04T16:53:46;0.63;;;0.28;;
35699;SDS011;21818;51.078;12.108;2022-11-04T16:56:13;0.63;;;0.30;;
35699;SDS011;21818;51.078;12.108;2022-11-04T16:58:39;0.77;;;0.30;;
35699;SDS011;21818;51.078;12.108;2022-11-04T17:01:05;0.28;;;0.20;;
35699;SDS011;21818;51.078;12.108;2022-11-04T17:03:30;0.40;;;0.20;;
35699;SDS011;21818;51.078;12.108;2022-11-04T17:05:57;0.35;;;0.25;;
35699;SDS011;21818;51.078;12.108;2022-11-04T17:08:23;0.20;;;0.20;;
35699;SDS011;21818;51.078;12.108;2022-11-04T17:10:49;0.30;;;0.30;;
35699;SDS011;21818;51.078;12.108;2022-11-04T17:13:15;0.45;;;0.22;;
35699;SDS011;21818;51.078;12.108;2022-11-04T17:15:41;0.77;;;0.30;;
35699;SDS011;21818;51.078;12.108;2022-11-04T17:18:08;0.60;;;0.30;;
35699;SDS011;21818;51.078;12.108;2022-11-04T17:20:38;0.22;;;0.20;;
35699;SDS011;21818;51.078;12.108;2022-11-04T17:23:04;0.30;;;0.20;;
35699;SDS011;21818;51.078;12.108;2022-11-04T17:25:30;0.20;;;0.20;;
35699;SDS011;21818;51.078;12.108;2022-11-04T17:27:56;0.40;;;0.30;;
35699;SDS011;21818;51.078;12.108;2022-11-04T17:30:21;0.35;;;0.20;;
35699;SDS011;21818;51.078;12.108;2022-11-04T17:32:47;0.50;;;0.20;;
35699;SDS011;21818;51.078;12.108;2022-11-04T17:35:14;1.00;;;0.32;;
35699;SDS011;21818;51.078;12.108;2022-11-04T17:37:40;0.20;;;0.20;;
35699;SDS011;21818;51.078;12.108;2022-11-04T17:40:07;1.15;;;0.30;;
35699;SDS011;21818;51.078;12.108;2022-11-04T17:42:36;0.70;;;0.30;;